EDDH/HAM METAR and TAF weather

Enter ICAO airport designator
Station Type Date Time Source
EDDH METAR 2021/04/13 08:20 UTC NOAA

EDDH 130820Z 27010KT 230V300 9999 FEW010 BKN016 06/02 Q1028 NOSIG


Station Type Date Time Source
EDDH Decoded METAR 2021/04/13 08:20 UTC NOAA

Hamburg-Fuhlsbuettel, Germany (EDDH) 53-38N 010-00E 15M
Apr 13, 2021 - 04:20 AM EDT / 2021.04.13 0820 UTC
Wind: from the W (270 degrees) at 12 MPH (10 KT) (direction variable):0
Visibility: greater than 7 mile(s):0
Sky conditions: mostly cloudy
Temperature: 42 F (6 C)
Dew Point: 35 F (2 C)
Relative Humidity: 75%
Pressure (altimeter): 30.36 in. Hg (1028 hPa)
ob: EDDH 130820Z 27010KT 230V300 9999 FEW010 BKN016 06/02 Q1028 NOSIG
cycle: 8

Station Type Date Time Source
EDDH TAF 2021/04/13 06:27 UTC NOAA

TAF EDDH 130500Z 1306/1412 25006KT 9999 SCT025CB
BECMG 1306/1309 29013KT
TEMPO 1309/1318 29015G25KT SHRAGS PROB30
TEMPO 1311/1314 31020G30KT 4500 TSGS BKN010
BECMG 1318/1320 28007KT

Example: see airport list